sensor_id;sensor_type;location;lat;lon;timestamp;temperature;humidity
9466;DHT22;4771;48.726;9.006;2023-04-25T00:00:45;8.90;99.90
9466;DHT22;4771;48.726;9.006;2023-04-25T00:03:12;8.90;99.90
9466;DHT22;4771;48.726;9.006;2023-04-25T00:05:39;8.90;99.90
9466;DHT22;4771;48.726;9.006;2023-04-25T00:08:07;8.90;99.90
9466;DHT22;4771;48.726;9.006;2023-04-25T00:10:34;8.90;99.90
9466;DHT22;4771;48.726;9.006;2023-04-25T00:13:02;8.90;99.90
9466;DHT22;4771;48.726;9.006;2023-04-25T00:15:29;9.00;99.90
9466;DHT22;4771;48.726;9.006;2023-04-25T00:17:56;8.90;99.90
9466;DHT22;4771;48.726;9.006;2023-04-25T00:20:23;8.90;99.90
9466;DHT22;4771;48.726;9.006;2023-04-25T00:22:50;8.90;99.90
9466;DHT22;4771;48.726;9.006;2023-04-25T00:25:18;8.90;99.90
9466;DHT22;4771;48.726;9.006;2023-04-25T00:27:45;8.90;99.90
9466;DHT22;4771;48.726;9.006;2023-04-25T00:30:14;8.90;99.90
9466;DHT22;4771;48.726;9.006;2023-04-25T00:32:41;8.90;99.90
9466;DHT22;4771;48.726;9.006;2023-04-25T00:35:09;9.00;99.90
9466;DHT22;4771;48.726;9.006;2023-04-25T00:37:36;8.90;99.90
9466;DHT22;4771;48.726;9.006;2023-04-25T00:40:05;8.90;99.90
9466;DHT22;4771;48.726;9.006;2023-04-25T00:42:34;8.90;99.90
9466;DHT22;4771;48.726;9.006;2023-04-25T00:45:02;8.90;99.90
9466;DHT22;4771;48.726;9.006;2023-04-25T00:47:32;8.90;99.90
9466;DHT22;4771;48.726;9.006;2023-04-25T00:49:59;8.90;99.90
9466;DHT22;4771;48.726;9.006;2023-04-25T00:52:27;9.00;99.90
9466;DHT22;4771;48.726;9.006;2023-04-25T00:54:53;8.90;99.90
9466;DHT22;4771;48.726;9.006;2023-04-25T00:57:21;9.00;99.90
9466;DHT22;4771;48.726;9.006;2023-04-25T00:59:48;9.10;99.90
9466;DHT22;4771;48.726;9.006;2023-04-25T01:02:17;9.10;99.90
9466;DHT22;4771;48.726;9.006;2023-04-25T01:04:47;9.10;99.90
9466;DHT22;4771;48.726;9.006;2023-04-25T01:07:14;9.10;99.90
9466;DHT22;4771;48.726;9.006;2023-04-25T01:09:41;9.20;99.90
9466;DHT22;4771;48.726;9.006;2023-04-25T01:12:08;9.10;99.90
9466;DHT22;4771;48.726;9.006;2023-04-25T01:14:35;9.20;99.90
9466;DHT22;4771;48.726;9.006;2023-04-25T01:17:02;9.20;99.90
9466;DHT22;4771;48.726;9.006;2023-04-25T01:19:29;9.10;99.90
9466;DHT22;4771;48.726;9.006;2023-04-25T01:21:58;9.10;99.90
9466;DHT22;4771;48.726;9.006;2023-04-25T01:24:25;9.10;99.90
9466;DHT22;4771;48.726;9.006;2023-04-25T01:26:53;9.10;99.90
9466;DHT22;4771;48.726;9.006;2023-04-25T01:29:22;9.10;99.90
9466;DHT22;4771;48.726;9.006;2023-04-25T01:31:50;9.10;99.90
9466;DHT22;4771;48.726;9.006;2023-04-25T01:34:17;9.10;99.90
9466;DHT22;4771;48.726;9.006;2023-04-25T01:36:44;9.10;99.90
9466;DHT22;4771;48.726;9.006;2023-04-25T01:39:13;9.10;99.90
9466;DHT22;4771;48.726;9.006;2023-04-25T01:41:40;9.10;99.90
9466;DHT22;4771;48.726;9.006;2023-04-25T01:44:07;9.10;99.90
9466;DHT22;4771;48.726;9.006;2023-04-25T01:46:34;9.10;99.90
9466;DHT22;4771;48.726;9.006;2023-04-25T01:49:01;9.10;99.90
9466;DHT22;4771;48.726;9.006;2023-04-25T01:51:28;9.00;99.90
9466;DHT22;4771;48.726;9.006;2023-04-25T01:53:55;9.00;99.90
9466;DHT22;4771;48.726;9.006;2023-04-25T01:56:24;9.00;99.90
9466;DHT22;4771;48.726;9.006;2023-04-25T01:58:51;9.00;99.90
9466;DHT22;4771;48.726;9.006;2023-04-25T02:01:18;9.00;99.90
9466;DHT22;4771;48.726;9.006;2023-04-25T02:03:45;9.00;99.90
9466;DHT22;4771;48.726;9.006;2023-04-25T02:06:12;8.90;99.90
9466;DHT22;4771;48.726;9.006;2023-04-25T02:08:39;8.90;99.90
9466;DHT22;4771;48.726;9.006;2023-04-25T02:11:05;8.90;99.90
9466;DHT22;4771;48.726;9.006;2023-04-25T02:13:34;8.80;99.90
9466;DHT22;4771;48.726;9.006;2023-04-25T02:16:00;8.90;99.90
9466;DHT22;4771;48.726;9.006;2023-04-25T02:18:27;8.90;99.90
9466;DHT22;4771;48.726;9.006;2023-04-25T02:20:54;8.80;99.90
9466;DHT22;4771;48.726;9.006;2023-04-25T02:23:21;8.90;99.90
9466;DHT22;4771;48.726;9.006;2023-04-25T02:25:48;8.90;99.90
9466;DHT22;4771;48.726;9.006;2023-04-25T02:28:16;8.90;99.90
9466;DHT22;4771;48.726;9.006;2023-04-25T02:30:44;8.80;99.90
9466;DHT22;4771;48.726;9.006;2023-04-25T02:33:11;8.80;99.90
9466;DHT22;4771;48.726;9.006;2023-04-25T02:35:37;8.80;99.90
9466;DHT22;4771;48.726;9.006;2023-04-25T02:38:04;8.80;99.90
9466;DHT22;4771;48.726;9.006;2023-04-25T02:40:31;8.80;99.90
9466;DHT22;4771;48.726;9.006;2023-04-25T02:42:58;8.80;99.90
9466;DHT22;4771;48.726;9.006;2023-04-25T02:45:25;8.70;99.90
9466;DHT22;4771;48.726;9.006;2023-04-25T02:47:53;8.70;99.90
9466;DHT22;4771;48.726;9.006;2023-04-25T02:50:20;8.80;99.90
9466;DHT22;4771;48.726;9.006;2023-04-25T02:52:47;8.80;99.90
9466;DHT22;4771;48.726;9.006;2023-04-25T02:55:14;8.80;99.90
9466;DHT22;4771;48.726;9.006;2023-04-25T02:57:41;8.70;99.90
9466;DHT22;4771;48.726;9.006;2023-04-25T03:00:08;8.80;99.90
9466;DHT22;4771;48.726;9.006;2023-04-25T03:02:37;8.60;99.90
9466;DHT22;4771;48.726;9.006;2023-04-25T03:05:05;8.50;99.90
9466;DHT22;4771;48.726;9.006;2023-04-25T03:07:32;8.50;99.90
9466;DHT22;4771;48.726;9.006;2023-04-25T03:09:59;8.40;99.90
9466;DHT22;4771;48.726;9.006;2023-04-25T03:12:26;8.40;99.90
9466;DHT22;4771;48.726;9.006;2023-04-25T03:14:53;8.40;99.90
9466;DHT22;4771;48.726;9.006;2023-04-25T03:17:20;8.40;99.90
9466;DHT22;4771;48.726;9.006;2023-04-25T03:19:47;8.30;99.90
9466;DHT22;4771;48.726;9.006;2023-04-25T03:22:15;8.40;99.90
9466;DHT22;4771;48.726;9.006;2023-04-25T03:24:42;8.30;99.90
9466;DHT22;4771;48.726;9.006;2023-04-25T03:27:09;8.30;99.90
9466;DHT22;4771;48.726;9.006;2023-04-25T03:29:36;8.40;99.90
9466;DHT22;4771;48.726;9.006;2023-04-25T03:32:03;8.40;99.90
9466;DHT22;4771;48.726;9.006;2023-04-25T03:34:30;8.50;99.90
9466;DHT22;4771;48.726;9.006;2023-04-25T03:37:00;8.50;99.90
9466;DHT22;4771;48.726;9.006;2023-04-25T03:39:28;8.50;99.90
9466;DHT22;4771;48.726;9.006;2023-04-25T03:41:55;8.50;99.90
9466;DHT22;4771;48.726;9.006;2023-04-25T03:44:22;8.50;99.90
9466;DHT22;4771;48.726;9.006;2023-04-25T03:46:49;8.50;99.90
9466;DHT22;4771;48.726;9.006;2023-04-25T03:49:16;8.50;99.90
9466;DHT22;4771;48.726;9.006;2023-04-25T03:51:43;8.50;99.90
9466;DHT22;4771;48.726;9.006;2023-04-25T03:54:10;8.50;99.90
9466;DHT22;4771;48.726;9.006;2023-04-25T03:56:39;8.30;99.90
9466;DHT22;4771;48.726;9.006;2023-04-25T03:59:06;8.50;99.90
9466;DHT22;4771;48.726;9.006;2023-04-25T04:01:33;8.60;99.90
9466;DHT22;4771;48.726;9.006;2023-04-25T04:04:00;8.60;99.90
9466;DHT22;4771;48.726;9.006;2023-04-25T04:06:27;8.50;99.90
9466;DHT22;4771;48.726;9.006;2023-04-25T04:08:54;8.50;99.90
9466;DHT22;4771;48.726;9.006;2023-04-25T04:11:22;8.50;99.90
9466;DHT22;4771;48.726;9.006;2023-04-25T04:13:50;8.40;99.90
9466;DHT22;4771;48.726;9.006;2023-04-25T04:16:17;8.40;99.90
9466;DHT22;4771;48.726;9.006;2023-04-25T04:18:45;8.40;99.90
9466;DHT22;4771;48.726;9.006;2023-04-25T04:21:12;8.40;99.90
9466;DHT22;4771;48.726;9.006;2023-04-25T04:23:39;8.40;99.90
9466;DHT22;4771;48.726;9.006;2023-04-25T04:26:06;8.40;99.90
9466;DHT22;4771;48.726;9.006;2023-04-25T04:28:34;8.30;99.90
9466;DHT22;4771;48.726;9.006;2023-04-25T04:31:02;8.30;99.90
9466;DHT22;4771;48.726;9.006;2023-04-25T04:33:29;8.20;99.90
9466;DHT22;4771;48.726;9.006;2023-04-25T04:35:57;8.20;99.90
9466;DHT22;4771;48.726;9.006;2023-04-25T04:38:24;8.20;99.90
9466;DHT22;4771;48.726;9.006;2023-04-25T04:40:51;8.20;99.90
9466;DHT22;4771;48.726;9.006;2023-04-25T04:43:19;8.10;99.90
9466;DHT22;4771;48.726;9.006;2023-04-25T04:45:46;8.10;99.90
9466;DHT22;4771;48.726;9.006;2023-04-25T04:48:14;8.20;99.90
9466;DHT22;4771;48.726;9.006;2023-04-25T04:50:43;8.10;99.90
9466;DHT22;4771;48.726;9.006;2023-04-25T04:53:10;8.20;99.90
9466;DHT22;4771;48.726;9.006;2023-04-25T04:55:40;8.20;99.90
9466;DHT22;4771;48.726;9.006;2023-04-25T04:58:07;8.30;99.90
9466;DHT22;4771;48.726;9.006;2023-04-25T05:00:34;8.30;99.90
9466;DHT22;4771;48.726;9.006;2023-04-25T05:03:01;8.30;99.90
9466;DHT22;4771;48.726;9.006;2023-04-25T05:05:29;8.30;99.90
9466;DHT22;4771;48.726;9.006;2023-04-25T05:07:56;8.40;99.90
9466;DHT22;4771;48.726;9.006;2023-04-25T05:10:23;8.40;99.90
9466;DHT22;4771;48.726;9.006;2023-04-25T05:12:50;8.30;99.90
9466;DHT22;4771;48.726;9.006;2023-04-25T05:15:17;8.40;99.90
9466;DHT22;4771;48.726;9.006;2023-04-25T05:17:44;8.40;99.90
9466;DHT22;4771;48.726;9.006;2023-04-25T05:20:11;8.30;99.90
9466;DHT22;4771;48.726;9.006;2023-04-25T05:22:41;8.30;99.90
9466;DHT22;4771;48.726;9.006;2023-04-25T05:25:09;8.20;99.90
9466;DHT22;4771;48.726;9.006;2023-04-25T05:27:36;8.20;99.90
9466;DHT22;4771;48.726;9.006;2023-04-25T05:30:03;8.20;99.90
9466;DHT22;4771;48.726;9.006;2023-04-25T05:32:31;8.30;99.90
9466;DHT22;4771;48.726;9.006;2023-04-25T05:34:58;8.30;99.90
9466;DHT22;4771;48.726;9.006;2023-04-25T05:37:25;8.40;99.90
9466;DHT22;4771;48.726;9.006;2023-04-25T05:39:53;8.40;99.90
9466;DHT22;4771;48.726;9.006;2023-04-25T05:42:20;8.40;99.90
9466;DHT22;4771;48.726;9.006;2023-04-25T05:44:47;8.40;99.90
9466;DHT22;4771;48.726;9.006;2023-04-25T05:47:14;8.40;99.90
9466;DHT22;4771;48.726;9.006;2023-04-25T05:49:40;8.40;99.90
9466;DHT22;4771;48.726;9.006;2023-04-25T05:52:07;8.40;99.90
9466;DHT22;4771;48.726;9.006;2023-04-25T05:54:34;8.50;99.90
9466;DHT22;4771;48.726;9.006;2023-04-25T05:57:02;8.50;99.90
9466;DHT22;4771;48.726;9.006;2023-04-25T05:59:29;8.50;99.90
9466;DHT22;4771;48.726;9.006;2023-04-25T06:01:56;8.50;99.90
9466;DHT22;4771;48.726;9.006;2023-04-25T06:04:23;8.60;99.90
9466;DHT22;4771;48.726;9.006;2023-04-25T06:06:50;8.60;99.90
9466;DHT22;4771;48.726;9.006;2023-04-25T06:09:17;8.60;99.90
9466;DHT22;4771;48.726;9.006;2023-04-25T06:11:44;8.70;99.90
9466;DHT22;4771;48.726;9.006;2023-04-25T06:14:12;8.60;99.90
9466;DHT22;4771;48.726;9.006;2023-04-25T06:16:39;8.60;99.90
9466;DHT22;4771;48.726;9.006;2023-04-25T06:19:06;8.60;99.90
9466;DHT22;4771;48.726;9.006;2023-04-25T06:21:32;8.60;99.90
9466;DHT22;4771;48.726;9.006;2023-04-25T06:24:00;8.70;99.90
9466;DHT22;4771;48.726;9.006;2023-04-25T06:26:27;8.70;99.90
9466;DHT22;4771;48.726;9.006;2023-04-25T06:28:54;8.70;99.90
9466;DHT22;4771;48.726;9.006;2023-04-25T06:31:22;8.80;99.90
9466;DHT22;4771;48.726;9.006;2023-04-25T06:33:49;8.90;99.90
9466;DHT22;4771;48.726;9.006;2023-04-25T06:36:16;8.90;99.90
9466;DHT22;4771;48.726;9.006;2023-04-25T06:38:42;8.90;99.90
9466;DHT22;4771;48.726;9.006;2023-04-25T06:41:09;8.90;99.90
9466;DHT22;4771;48.726;9.006;2023-04-25T06:43:36;8.90;99.90
9466;DHT22;4771;48.726;9.006;2023-04-25T06:46:03;8.90;99.90
9466;DHT22;4771;48.726;9.006;2023-04-25T06:48:31;8.90;99.90
9466;DHT22;4771;48.726;9.006;2023-04-25T06:50:58;8.90;99.90
9466;DHT22;4771;48.726;9.006;2023-04-25T06:53:25;8.90;99.90
9466;DHT22;4771;48.726;9.006;2023-04-25T06:55:52;8.80;99.90
9466;DHT22;4771;48.726;9.006;2023-04-25T06:58:19;8.80;99.90
9466;DHT22;4771;48.726;9.006;2023-04-25T07:00:46;8.80;99.90
9466;DHT22;4771;48.726;9.006;2023-04-25T07:03:13;8.80;99.90
9466;DHT22;4771;48.726;9.006;2023-04-25T07:05:41;8.70;99.90
9466;DHT22;4771;48.726;9.006;2023-04-25T07:08:09;8.60;99.90
9466;DHT22;4771;48.726;9.006;2023-04-25T07:10:35;8.50;99.90
9466;DHT22;4771;48.726;9.006;2023-04-25T07:13:06;8.20;99.90
9466;DHT22;4771;48.726;9.006;2023-04-25T07:15:33;7.90;99.90
9466;DHT22;4771;48.726;9.006;2023-04-25T07:18:00;8.00;99.90
9466;DHT22;4771;48.726;9.006;2023-04-25T07:20:27;8.00;99.90
9466;DHT22;4771;48.726;9.006;2023-04-25T07:22:57;8.20;99.90
9466;DHT22;4771;48.726;9.006;2023-04-25T07:25:24;8.10;99.90
9466;DHT22;4771;48.726;9.006;2023-04-25T07:27:51;8.20;99.90
9466;DHT22;4771;48.726;9.006;2023-04-25T07:30:23;8.30;99.90
9466;DHT22;4771;48.726;9.006;2023-04-25T07:32:51;8.30;99.90
9466;DHT22;4771;48.726;9.006;2023-04-25T07:35:18;8.40;99.90
9466;DHT22;4771;48.726;9.006;2023-04-25T07:37:45;8.50;99.90
9466;DHT22;4771;48.726;9.006;2023-04-25T07:40:13;8.60;99.90
9466;DHT22;4771;48.726;9.006;2023-04-25T07:42:41;8.50;99.90
9466;DHT22;4771;48.726;9.006;2023-04-25T07:45:09;8.50;99.90
9466;DHT22;4771;48.726;9.006;2023-04-25T07:47:36;8.60;99.90
9466;DHT22;4771;48.726;9.006;2023-04-25T07:50:04;8.60;99.90
9466;DHT22;4771;48.726;9.006;2023-04-25T07:52:31;8.60;99.90
9466;DHT22;4771;48.726;9.006;2023-04-25T07:54:58;8.60;99.90
9466;DHT22;4771;48.726;9.006;2023-04-25T07:57:27;8.70;99.90
9466;DHT22;4771;48.726;9.006;2023-04-25T07:59:54;8.70;99.90
9466;DHT22;4771;48.726;9.006;2023-04-25T08:02:23;8.60;99.90
9466;DHT22;4771;48.726;9.006;2023-04-25T08:04:51;8.60;99.90
9466;DHT22;4771;48.726;9.006;2023-04-25T08:07:18;8.50;99.90
9466;DHT22;4771;48.726;9.006;2023-04-25T08:09:45;8.40;99.90
9466;DHT22;4771;48.726;9.006;2023-04-25T08:12:12;8.20;99.90
9466;DHT22;4771;48.726;9.006;2023-04-25T08:14:40;8.30;99.90
9466;DHT22;4771;48.726;9.006;2023-04-25T08:17:07;8.30;99.90
9466;DHT22;4771;48.726;9.006;2023-04-25T08:19:34;8.30;99.90
9466;DHT22;4771;48.726;9.006;2023-04-25T08:22:01;8.40;99.90
9466;DHT22;4771;48.726;9.006;2023-04-25T08:24:27;8.40;99.90
9466;DHT22;4771;48.726;9.006;2023-04-25T08:26:54;8.20;99.90
9466;DHT22;4771;48.726;9.006;2023-04-25T08:29:21;8.20;99.90
9466;DHT22;4771;48.726;9.006;2023-04-25T08:31:51;8.00;99.90
9466;DHT22;4771;48.726;9.006;2023-04-25T08:34:18;7.90;99.90
9466;DHT22;4771;48.726;9.006;2023-04-25T08:36:45;7.90;99.90
9466;DHT22;4771;48.726;9.006;2023-04-25T08:39:12;7.90;99.90
9466;DHT22;4771;48.726;9.006;2023-04-25T08:41:40;7.80;99.90
9466;DHT22;4771;48.726;9.006;2023-04-25T08:44:10;7.80;99.90
9466;DHT22;4771;48.726;9.006;2023-04-25T08:46:38;7.90;99.90
9466;DHT22;4771;48.726;9.006;2023-04-25T08:49:07;8.00;99.90
9466;DHT22;4771;48.726;9.006;2023-04-25T08:51:38;8.10;99.90
9466;DHT22;4771;48.726;9.006;2023-04-25T08:54:09;8.20;99.90
9466;DHT22;4771;48.726;9.006;2023-04-25T08:56:38;8.20;99.90
9466;DHT22;4771;48.726;9.006;2023-04-25T08:59:05;8.30;99.90
9466;DHT22;4771;48.726;9.006;2023-04-25T09:01:33;8.30;99.90
9466;DHT22;4771;48.726;9.006;2023-04-25T09:04:01;8.30;99.90
9466;DHT22;4771;48.726;9.006;2023-04-25T09:06:31;8.30;99.90
9466;DHT22;4771;48.726;9.006;2023-04-25T09:09:02;8.40;99.90
9466;DHT22;4771;48.726;9.006;2023-04-25T09:11:30;8.40;99.90
9466;DHT22;4771;48.726;9.006;2023-04-25T09:14:10;8.30;99.90
9466;DHT22;4771;48.726;9.006;2023-04-25T09:16:57;8.30;99.90
9466;DHT22;4771;48.726;9.006;2023-04-25T09:19:26;8.20;99.90
9466;DHT22;4771;48.726;9.006;2023-04-25T09:21:55;8.10;99.90
9466;DHT22;4771;48.726;9.006;2023-04-25T09:24:34;8.00;99.90
9466;DHT22;4771;48.726;9.006;2023-04-25T09:27:05;8.00;99.90
9466;DHT22;4771;48.726;9.006;2023-04-25T09:29:33;8.00;99.90
9466;DHT22;4771;48.726;9.006;2023-04-25T09:32:17;7.70;99.90
9466;DHT22;4771;48.726;9.006;2023-04-25T09:34:46;7.80;99.90
9466;DHT22;4771;48.726;9.006;2023-04-25T09:37:19;7.80;99.90
9466;DHT22;4771;48.726;9.006;2023-04-25T09:39:47;7.70;99.90
9466;DHT22;4771;48.726;9.006;2023-04-25T09:42:14;7.80;99.90
9466;DHT22;4771;48.726;9.006;2023-04-25T09:44:43;7.60;99.90
9466;DHT22;4771;48.726;9.006;2023-04-25T09:47:11;7.00;99.90
9466;DHT22;4771;48.726;9.006;2023-04-25T09:49:40;6.90;99.90
9466;DHT22;4771;48.726;9.006;2023-04-25T09:52:08;6.70;99.90
9466;DHT22;4771;48.726;9.006;2023-04-25T09:54:36;6.80;99.90
9466;DHT22;4771;48.726;9.006;2023-04-25T09:57:10;6.90;99.90
9466;DHT22;4771;48.726;9.006;2023-04-25T09:59:39;6.90;99.90
9466;DHT22;4771;48.726;9.006;2023-04-25T10:02:09;7.00;99.90
9466;DHT22;4771;48.726;9.006;2023-04-25T10:04:38;7.00;99.90
9466;DHT22;4771;48.726;9.006;2023-04-25T10:07:06;6.80;99.90
9466;DHT22;4771;48.726;9.006;2023-04-25T10:09:36;6.80;99.90
9466;DHT22;4771;48.726;9.006;2023-04-25T10:12:05;6.80;99.90
9466;DHT22;4771;48.726;9.006;2023-04-25T10:14:33;7.00;99.90
9466;DHT22;4771;48.726;9.006;2023-04-25T10:17:00;7.10;99.90
9466;DHT22;4771;48.726;9.006;2023-04-25T10:19:27;7.10;99.90
9466;DHT22;4771;48.726;9.006;2023-04-25T10:22:00;7.10;99.90
9466;DHT22;4771;48.726;9.006;2023-04-25T10:24:29;7.00;99.90
9466;DHT22;4771;48.726;9.006;2023-04-25T10:26:58;6.70;99.90
9466;DHT22;4771;48.726;9.006;2023-04-25T10:29:27;6.80;99.90
9466;DHT22;4771;48.726;9.006;2023-04-25T10:31:54;6.80;99.90
9466;DHT22;4771;48.726;9.006;2023-04-25T10:34:24;7.00;99.90
9466;DHT22;4771;48.726;9.006;2023-04-25T10:36:53;7.00;99.90
9466;DHT22;4771;48.726;9.006;2023-04-25T10:39:24;7.10;99.90
9466;DHT22;4771;48.726;9.006;2023-04-25T10:41:55;7.30;99.90
9466;DHT22;4771;48.726;9.006;2023-04-25T10:44:26;7.30;99.90
9466;DHT22;4771;48.726;9.006;2023-04-25T10:46:55;7.30;99.90
9466;DHT22;4771;48.726;9.006;2023-04-25T10:49:31;7.30;99.90
9466;DHT22;4771;48.726;9.006;2023-04-25T10:52:17;7.40;99.90
9466;DHT22;4771;48.726;9.006;2023-04-25T10:54:47;7.60;99.90
9466;DHT22;4771;48.726;9.006;2023-04-25T10:57:28;7.70;99.90
9466;DHT22;4771;48.726;9.006;2023-04-25T11:00:07;7.70;99.90
9466;DHT22;4771;48.726;9.006;2023-04-25T11:02:41;7.70;99.90
9466;DHT22;4771;48.726;9.006;2023-04-25T11:05:09;7.80;99.90
9466;DHT22;4771;48.726;9.006;2023-04-25T11:07:48;7.80;99.90
9466;DHT22;4771;48.726;9.006;2023-04-25T11:10:16;7.90;99.90
9466;DHT22;4771;48.726;9.006;2023-04-25T11:12:45;7.90;99.90
9466;DHT22;4771;48.726;9.006;2023-04-25T11:15:13;7.80;99.90
9466;DHT22;4771;48.726;9.006;2023-04-25T11:17:40;7.90;99.90
9466;DHT22;4771;48.726;9.006;2023-04-25T11:20:09;7.90;99.90
9466;DHT22;4771;48.726;9.006;2023-04-25T11:22:38;7.90;99.90
9466;DHT22;4771;48.726;9.006;2023-04-25T11:25:06;7.80;99.90
9466;DHT22;4771;48.726;9.006;2023-04-25T11:27:33;7.90;99.90
9466;DHT22;4771;48.726;9.006;2023-04-25T11:30:11;8.00;99.90
9466;DHT22;4771;48.726;9.006;2023-04-25T11:32:40;8.10;99.90
9466;DHT22;4771;48.726;9.006;2023-04-25T11:35:08;8.00;99.90
9466;DHT22;4771;48.726;9.006;2023-04-25T11:37:35;8.10;99.90
9466;DHT22;4771;48.726;9.006;2023-04-25T11:40:04;8.10;99.90
9466;DHT22;4771;48.726;9.006;2023-04-25T11:42:32;8.10;99.90
9466;DHT22;4771;48.726;9.006;2023-04-25T11:44:59;8.10;99.90
9466;DHT22;4771;48.726;9.006;2023-04-25T11:47:29;8.20;99.90
9466;DHT22;4771;48.726;9.006;2023-04-25T11:49:58;8.30;99.90
9466;DHT22;4771;48.726;9.006;2023-04-25T11:52:35;8.20;99.90
9466;DHT22;4771;48.726;9.006;2023-04-25T11:55:05;8.20;99.90
9466;DHT22;4771;48.726;9.006;2023-04-25T11:57:32;8.30;99.90
9466;DHT22;4771;48.726;9.006;2023-04-25T12:00:09;8.30;99.90
9466;DHT22;4771;48.726;9.006;2023-04-25T12:02:36;8.40;99.90
9466;DHT22;4771;48.726;9.006;2023-04-25T12:05:08;8.50;99.90
9466;DHT22;4771;48.726;9.006;2023-04-25T12:07:35;8.50;99.90
9466;DHT22;4771;48.726;9.006;2023-04-25T12:10:07;8.50;99.90
9466;DHT22;4771;48.726;9.006;2023-04-25T12:12:35;8.50;99.90
9466;DHT22;4771;48.726;9.006;2023-04-25T12:15:09;8.50;99.90
9466;DHT22;4771;48.726;9.006;2023-04-25T12:17:37;8.50;99.90
9466;DHT22;4771;48.726;9.006;2023-04-25T12:20:10;8.40;99.90
9466;DHT22;4771;48.726;9.006;2023-04-25T12:22:37;8.30;99.90
9466;DHT22;4771;48.726;9.006;2023-04-25T12:25:05;8.30;99.90
9466;DHT22;4771;48.726;9.006;2023-04-25T12:27:33;8.30;99.90
9466;DHT22;4771;48.726;9.006;2023-04-25T12:30:01;8.40;99.90
9466;DHT22;4771;48.726;9.006;2023-04-25T12:32:29;8.50;99.90
9466;DHT22;4771;48.726;9.006;2023-04-25T12:34:56;8.50;99.90
9466;DHT22;4771;48.726;9.006;2023-04-25T12:37:24;8.50;99.90
9466;DHT22;4771;48.726;9.006;2023-04-25T12:39:51;8.60;99.90
9466;DHT22;4771;48.726;9.006;2023-04-25T12:42:18;8.30;99.90
9466;DHT22;4771;48.726;9.006;2023-04-25T12:44:45;8.10;99.90
9466;DHT22;4771;48.726;9.006;2023-04-25T12:47:12;7.90;99.90
9466;DHT22;4771;48.726;9.006;2023-04-25T12:49:39;8.10;99.90
9466;DHT22;4771;48.726;9.006;2023-04-25T12:52:06;8.10;99.90
9466;DHT22;4771;48.726;9.006;2023-04-25T12:54:34;8.00;99.90
9466;DHT22;4771;48.726;9.006;2023-04-25T12:57:01;8.10;99.90
9466;DHT22;4771;48.726;9.006;2023-04-25T12:59:29;8.30;99.90
9466;DHT22;4771;48.726;9.006;2023-04-25T13:01:55;8.40;99.90
9466;DHT22;4771;48.726;9.006;2023-04-25T13:04:22;8.60;99.90
9466;DHT22;4771;48.726;9.006;2023-04-25T13:06:49;8.70;99.90
9466;DHT22;4771;48.726;9.006;2023-04-25T13:09:16;8.70;99.90
9466;DHT22;4771;48.726;9.006;2023-04-25T13:11:44;8.80;99.90
9466;DHT22;4771;48.726;9.006;2023-04-25T13:14:11;8.80;99.90
9466;DHT22;4771;48.726;9.006;2023-04-25T13:16:38;8.90;99.90
9466;DHT22;4771;48.726;9.006;2023-04-25T13:19:05;8.90;99.90
9466;DHT22;4771;48.726;9.006;2023-04-25T13:21:33;9.00;99.90
9466;DHT22;4771;48.726;9.006;2023-04-25T13:24:00;9.10;99.90
9466;DHT22;4771;48.726;9.006;2023-04-25T13:26:27;9.10;99.90
9466;DHT22;4771;48.726;9.006;2023-04-25T13:28:55;9.20;99.90
9466;DHT22;4771;48.726;9.006;2023-04-25T13:31:22;9.30;99.90
9466;DHT22;4771;48.726;9.006;2023-04-25T13:33:50;9.30;99.90
9466;DHT22;4771;48.726;9.006;2023-04-25T13:36:16;9.30;99.90
9466;DHT22;4771;48.726;9.006;2023-04-25T13:38:43;9.40;99.90
9466;DHT22;4771;48.726;9.006;2023-04-25T13:41:12;9.30;99.90
9466;DHT22;4771;48.726;9.006;2023-04-25T13:43:45;9.40;99.90
9466;DHT22;4771;48.726;9.006;2023-04-25T13:46:14;9.30;99.90
9466;DHT22;4771;48.726;9.006;2023-04-25T13:48:42;9.00;99.90
9466;DHT22;4771;48.726;9.006;2023-04-25T13:51:13;9.00;99.90
9466;DHT22;4771;48.726;9.006;2023-04-25T13:53:40;8.90;99.90
9466;DHT22;4771;48.726;9.006;2023-04-25T13:56:07;9.00;99.90
9466;DHT22;4771;48.726;9.006;2023-04-25T13:58:35;9.10;99.90
9466;DHT22;4771;48.726;9.006;2023-04-25T14:01:02;9.20;99.90
9466;DHT22;4771;48.726;9.006;2023-04-25T14:03:30;9.10;99.90
9466;DHT22;4771;48.726;9.006;2023-04-25T14:05:57;9.10;99.90
9466;DHT22;4771;48.726;9.006;2023-04-25T14:08:24;9.30;99.90
9466;DHT22;4771;48.726;9.006;2023-04-25T14:10:51;9.40;99.90
9466;DHT22;4771;48.726;9.006;2023-04-25T14:13:18;9.50;99.90
9466;DHT22;4771;48.726;9.006;2023-04-25T14:15:45;9.60;99.90
9466;DHT22;4771;48.726;9.006;2023-04-25T14:18:12;9.60;99.90
9466;DHT22;4771;48.726;9.006;2023-04-25T14:20:40;9.60;99.90
9466;DHT22;4771;48.726;9.006;2023-04-25T14:23:07;9.40;99.90
9466;DHT22;4771;48.726;9.006;2023-04-25T14:25:34;9.50;99.90
9466;DHT22;4771;48.726;9.006;2023-04-25T14:28:01;9.60;99.90
9466;DHT22;4771;48.726;9.006;2023-04-25T14:30:28;9.50;99.90
9466;DHT22;4771;48.726;9.006;2023-04-25T14:32:55;9.60;99.90
9466;DHT22;4771;48.726;9.006;2023-04-25T14:35:22;9.70;99.90
9466;DHT22;4771;48.726;9.006;2023-04-25T14:37:50;9.80;99.90
9466;DHT22;4771;48.726;9.006;2023-04-25T14:40:17;9.90;99.90
9466;DHT22;4771;48.726;9.006;2023-04-25T14:42:48;9.90;99.90
9466;DHT22;4771;48.726;9.006;2023-04-25T14:45:15;9.80;99.90
9466;DHT22;4771;48.726;9.006;2023-04-25T14:47:42;9.80;99.90
9466;DHT22;4771;48.726;9.006;2023-04-25T14:50:10;9.80;99.90
9466;DHT22;4771;48.726;9.006;2023-04-25T14:52:37;9.90;99.90
9466;DHT22;4771;48.726;9.006;2023-04-25T14:55:05;10.00;99.90
9466;DHT22;4771;48.726;9.006;2023-04-25T14:57:34;10.00;99.90
9466;DHT22;4771;48.726;9.006;2023-04-25T15:00:02;10.10;99.90
9466;DHT22;4771;48.726;9.006;2023-04-25T15:02:30;10.10;99.90
9466;DHT22;4771;48.726;9.006;2023-04-25T15:04:57;10.30;99.90
9466;DHT22;4771;48.726;9.006;2023-04-25T15:07:25;10.40;99.90
9466;DHT22;4771;48.726;9.006;2023-04-25T15:09:52;10.40;99.90
9466;DHT22;4771;48.726;9.006;2023-04-25T15:12:22;10.30;99.90
9466;DHT22;4771;48.726;9.006;2023-04-25T15:14:51;10.10;99.90
9466;DHT22;4771;48.726;9.006;2023-04-25T15:17:18;10.20;99.90
9466;DHT22;4771;48.726;9.006;2023-04-25T15:19:45;10.20;99.90
9466;DHT22;4771;48.726;9.006;2023-04-25T15:22:12;10.30;99.90
9466;DHT22;4771;48.726;9.006;2023-04-25T15:24:39;10.30;99.90
9466;DHT22;4771;48.726;9.006;2023-04-25T15:27:06;10.40;99.90
9466;DHT22;4771;48.726;9.006;2023-04-25T15:29:39;10.40;99.90
9466;DHT22;4771;48.726;9.006;2023-04-25T15:32:18;10.60;99.90
9466;DHT22;4771;48.726;9.006;2023-04-25T15:34:45;10.70;99.90
9466;DHT22;4771;48.726;9.006;2023-04-25T15:37:12;10.80;99.90
9466;DHT22;4771;48.726;9.006;2023-04-25T15:39:39;10.90;99.90
9466;DHT22;4771;48.726;9.006;2023-04-25T15:42:07;11.00;99.90
9466;DHT22;4771;48.726;9.006;2023-04-25T15:44:42;11.00;99.90
9466;DHT22;4771;48.726;9.006;2023-04-25T15:47:09;11.00;99.90
9466;DHT22;4771;48.726;9.006;2023-04-25T15:49:36;11.00;99.90
9466;DHT22;4771;48.726;9.006;2023-04-25T15:52:03;11.00;99.90
9466;DHT22;4771;48.726;9.006;2023-04-25T15:54:30;11.00;99.90
9466;DHT22;4771;48.726;9.006;2023-04-25T15:56:57;10.90;99.90
9466;DHT22;4771;48.726;9.006;2023-04-25T15:59:24;10.80;99.90
9466;DHT22;4771;48.726;9.006;2023-04-25T16:01:52;10.80;99.90
9466;DHT22;4771;48.726;9.006;2023-04-25T16:04:19;10.70;99.90
9466;DHT22;4771;48.726;9.006;2023-04-25T16:06:46;10.70;99.90
9466;DHT22;4771;48.726;9.006;2023-04-25T16:09:13;10.60;99.90
9466;DHT22;4771;48.726;9.006;2023-04-25T16:11:40;10.60;99.90
9466;DHT22;4771;48.726;9.006;2023-04-25T16:14:07;10.60;99.90
9466;DHT22;4771;48.726;9.006;2023-04-25T16:16:34;10.70;99.90
9466;DHT22;4771;48.726;9.006;2023-04-25T16:19:02;10.60;99.90
9466;DHT22;4771;48.726;9.006;2023-04-25T16:21:29;10.70;99.90